sensor_id;sensor_type;location;lat;lon;timestamp;P1;durP1;ratioP1;P2;durP2;ratioP2
58637;SDS011;54976;51.510;7.522;2023-02-08T00:01:19;26.60;;;14.27;;
58637;SDS011;54976;51.510;7.522;2023-02-08T00:04:22;27.83;;;13.35;;
58637;SDS011;54976;51.510;7.522;2023-02-08T00:07:22;27.42;;;13.10;;
58637;SDS011;54976;51.510;7.522;2023-02-08T00:10:23;32.35;;;13.55;;
58637;SDS011;54976;51.510;7.522;2023-02-08T00:13:24;24.08;;;12.25;;
58637;SDS011;54976;51.510;7.522;2023-02-08T00:16:25;28.67;;;11.98;;
58637;SDS011;54976;51.510;7.522;2023-02-08T00:19:25;29.92;;;13.23;;
58637;SDS011;54976;51.510;7.522;2023-02-08T00:22:26;26.55;;;12.90;;
58637;SDS011;54976;51.510;7.522;2023-02-08T00:25:26;26.50;;;12.68;;
58637;SDS011;54976;51.510;7.522;2023-02-08T00:28:27;29.05;;;13.07;;
58637;SDS011;54976;51.510;7.522;2023-02-08T00:31:28;21.40;;;12.35;;
58637;SDS011;54976;51.510;7.522;2023-02-08T00:34:28;24.42;;;13.30;;
58637;SDS011;54976;51.510;7.522;2023-02-08T00:37:30;24.30;;;12.30;;
58637;SDS011;54976;51.510;7.522;2023-02-08T00:40:30;23.83;;;12.18;;
58637;SDS011;54976;51.510;7.522;2023-02-08T00:43:31;29.50;;;12.27;;
58637;SDS011;54976;51.510;7.522;2023-02-08T00:46:32;23.10;;;11.38;;
58637;SDS011;54976;51.510;7.522;2023-02-08T00:49:32;26.08;;;12.20;;
58637;SDS011;54976;51.510;7.522;2023-02-08T00:52:33;22.35;;;12.23;;
58637;SDS011;54976;51.510;7.522;2023-02-08T00:55:34;24.70;;;12.07;;
58637;SDS011;54976;51.510;7.522;2023-02-08T00:58:35;24.15;;;12.23;;
58637;SDS011;54976;51.510;7.522;2023-02-08T01:01:35;24.50;;;12.13;;
58637;SDS011;54976;51.510;7.522;2023-02-08T01:04:36;28.90;;;13.40;;
58637;SDS011;54976;51.510;7.522;2023-02-08T01:07:38;23.25;;;11.80;;
58637;SDS011;54976;51.510;7.522;2023-02-08T01:10:39;24.45;;;11.02;;
58637;SDS011;54976;51.510;7.522;2023-02-08T01:13:39;21.48;;;11.57;;
58637;SDS011;54976;51.510;7.522;2023-02-08T01:16:40;22.50;;;12.13;;
58637;SDS011;54976;51.510;7.522;2023-02-08T01:19:41;26.02;;;12.05;;
58637;SDS011;54976;51.510;7.522;2023-02-08T01:22:42;26.02;;;12.38;;
58637;SDS011;54976;51.510;7.522;2023-02-08T01:25:42;24.50;;;11.93;;
58637;SDS011;54976;51.510;7.522;2023-02-08T01:28:43;21.52;;;11.95;;
58637;SDS011;54976;51.510;7.522;2023-02-08T01:31:44;21.38;;;11.15;;
58637;SDS011;54976;51.510;7.522;2023-02-08T01:34:45;22.23;;;10.98;;
58637;SDS011;54976;51.510;7.522;2023-02-08T01:37:46;22.85;;;11.48;;
58637;SDS011;54976;51.510;7.522;2023-02-08T01:40:46;22.77;;;11.98;;
58637;SDS011;54976;51.510;7.522;2023-02-08T01:44:07;20.95;;;11.80;;
58637;SDS011;54976;51.510;7.522;2023-02-08T01:47:11;23.33;;;11.73;;
58637;SDS011;54976;51.510;7.522;2023-02-08T01:50:12;19.67;;;10.20;;
58637;SDS011;54976;51.510;7.522;2023-02-08T01:53:14;28.15;;;13.07;;
58637;SDS011;54976;51.510;7.522;2023-02-08T01:56:17;26.83;;;12.27;;
58637;SDS011;54976;51.510;7.522;2023-02-08T01:59:26;23.17;;;12.32;;
58637;SDS011;54976;51.510;7.522;2023-02-08T02:02:33;21.00;;;11.90;;
58637;SDS011;54976;51.510;7.522;2023-02-08T02:05:44;21.83;;;11.82;;
58637;SDS011;54976;51.510;7.522;2023-02-08T02:08:52;23.27;;;11.43;;
58637;SDS011;54976;51.510;7.522;2023-02-08T02:12:00;27.23;;;10.60;;
58637;SDS011;54976;51.510;7.522;2023-02-08T02:15:01;21.15;;;10.70;;
58637;SDS011;54976;51.510;7.522;2023-02-08T02:18:03;18.00;;;9.95;;
58637;SDS011;54976;51.510;7.522;2023-02-08T02:24:47;15.82;;;9.32;;
58637;SDS011;54976;51.510;7.522;2023-02-08T02:28:32;16.42;;;9.10;;
58637;SDS011;54976;51.510;7.522;2023-02-08T02:36:08;17.83;;;9.07;;
58637;SDS011;54976;51.510;7.522;2023-02-08T02:49:52;19.13;;;9.27;;
58637;SDS011;54976;51.510;7.522;2023-02-08T02:53:19;17.55;;;8.27;;
58637;SDS011;54976;51.510;7.522;2023-02-08T02:56:36;17.97;;;9.10;;
58637;SDS011;54976;51.510;7.522;2023-02-08T02:59:41;18.35;;;9.38;;
58637;SDS011;54976;51.510;7.522;2023-02-08T03:02:44;15.07;;;8.13;;
58637;SDS011;54976;51.510;7.522;2023-02-08T03:05:44;17.05;;;8.90;;
58637;SDS011;54976;51.510;7.522;2023-02-08T03:22:18;15.23;;;7.82;;
58637;SDS011;54976;51.510;7.522;2023-02-08T03:31:55;17.45;;;7.95;;
58637;SDS011;54976;51.510;7.522;2023-02-08T03:38:12;13.55;;;7.10;;
58637;SDS011;54976;51.510;7.522;2023-02-08T03:41:23;15.07;;;8.18;;
58637;SDS011;54976;51.510;7.522;2023-02-08T03:47:38;19.17;;;8.88;;
58637;SDS011;54976;51.510;7.522;2023-02-08T03:50:43;12.40;;;7.50;;
58637;SDS011;54976;51.510;7.522;2023-02-08T03:53:48;12.27;;;7.40;;
58637;SDS011;54976;51.510;7.522;2023-02-08T04:00:06;15.05;;;7.60;;
58637;SDS011;54976;51.510;7.522;2023-02-08T04:03:12;13.18;;;7.15;;
58637;SDS011;54976;51.510;7.522;2023-02-08T04:06:18;17.48;;;7.50;;
58637;SDS011;54976;51.510;7.522;2023-02-08T04:09:20;15.88;;;7.65;;
58637;SDS011;54976;51.510;7.522;2023-02-08T04:12:20;13.85;;;7.45;;
58637;SDS011;54976;51.510;7.522;2023-02-08T04:15:21;13.07;;;7.03;;
58637;SDS011;54976;51.510;7.522;2023-02-08T04:18:22;16.58;;;7.05;;
58637;SDS011;54976;51.510;7.522;2023-02-08T04:21:23;15.88;;;7.55;;
58637;SDS011;54976;51.510;7.522;2023-02-08T04:24:23;13.18;;;6.70;;
58637;SDS011;54976;51.510;7.522;2023-02-08T04:27:24;12.70;;;6.50;;
58637;SDS011;54976;51.510;7.522;2023-02-08T04:30:24;15.40;;;7.43;;
58637;SDS011;54976;51.510;7.522;2023-02-08T04:33:25;14.27;;;7.45;;
58637;SDS011;54976;51.510;7.522;2023-02-08T04:36:25;15.32;;;7.03;;
58637;SDS011;54976;51.510;7.522;2023-02-08T04:39:26;15.32;;;6.57;;
58637;SDS011;54976;51.510;7.522;2023-02-08T04:42:27;13.20;;;7.45;;
58637;SDS011;54976;51.510;7.522;2023-02-08T04:45:27;14.13;;;6.63;;
58637;SDS011;54976;51.510;7.522;2023-02-08T04:48:30;13.70;;;6.05;;
58637;SDS011;54976;51.510;7.522;2023-02-08T04:51:31;23.58;;;7.32;;
58637;SDS011;54976;51.510;7.522;2023-02-08T04:59:10;17.42;;;7.30;;
58637;SDS011;54976;51.510;7.522;2023-02-08T05:03:17;12.43;;;5.82;;
58637;SDS011;54976;51.510;7.522;2023-02-08T05:07:12;17.25;;;6.93;;
58637;SDS011;54976;51.510;7.522;2023-02-08T05:36:08;18.48;;;6.32;;
58637;SDS011;54976;51.510;7.522;2023-02-08T06:00:52;13.38;;;6.05;;
58637;SDS011;54976;51.510;7.522;2023-02-08T10:50:26;4.40;;;2.53;;
58637;SDS011;54976;51.510;7.522;2023-02-08T10:53:29;3.95;;;2.22;;
58637;SDS011;54976;51.510;7.522;2023-02-08T10:59:48;4.25;;;1.77;;
58637;SDS011;54976;51.510;7.522;2023-02-08T11:05:51;4.55;;;2.05;;
58637;SDS011;54976;51.510;7.522;2023-02-08T11:08:53;3.58;;;2.00;;
58637;SDS011;54976;51.510;7.522;2023-02-08T11:11:56;3.53;;;1.95;;
58637;SDS011;54976;51.510;7.522;2023-02-08T11:14:59;3.13;;;1.83;;
58637;SDS011;54976;51.510;7.522;2023-02-08T11:18:00;3.92;;;1.80;;
58637;SDS011;54976;51.510;7.522;2023-02-08T11:21:02;2.58;;;1.80;;
58637;SDS011;54976;51.510;7.522;2023-02-08T11:27:15;3.15;;;1.80;;
58637;SDS011;54976;51.510;7.522;2023-02-08T11:30:20;4.15;;;1.92;;
58637;SDS011;54976;51.510;7.522;2023-02-08T11:33:23;3.20;;;1.90;;
58637;SDS011;54976;51.510;7.522;2023-02-08T11:36:26;3.03;;;1.60;;
58637;SDS011;54976;51.510;7.522;2023-02-08T11:39:31;4.00;;;2.20;;
58637;SDS011;54976;51.510;7.522;2023-02-08T11:42:41;4.47;;;1.90;;
58637;SDS011;54976;51.510;7.522;2023-02-08T11:45:44;2.17;;;1.55;;
58637;SDS011;54976;51.510;7.522;2023-02-08T11:48:49;3.30;;;1.70;;
58637;SDS011;54976;51.510;7.522;2023-02-08T11:51:51;3.78;;;1.80;;
58637;SDS011;54976;51.510;7.522;2023-02-08T11:54:53;4.03;;;1.80;;
58637;SDS011;54976;51.510;7.522;2023-02-08T11:58:21;6.93;;;2.47;;
58637;SDS011;54976;51.510;7.522;2023-02-08T12:01:25;5.00;;;2.65;;
58637;SDS011;54976;51.510;7.522;2023-02-08T12:04:31;5.85;;;3.20;;
58637;SDS011;54976;51.510;7.522;2023-02-08T12:07:35;12.15;;;3.55;;
58637;SDS011;54976;51.510;7.522;2023-02-08T12:20:46;5.50;;;2.63;;
58637;SDS011;54976;51.510;7.522;2023-02-08T12:23:50;7.13;;;3.60;;
58637;SDS011;54976;51.510;7.522;2023-02-08T12:27:05;8.30;;;3.55;;
58637;SDS011;54976;51.510;7.522;2023-02-08T12:30:41;5.88;;;2.90;;
58637;SDS011;54976;51.510;7.522;2023-02-08T12:57:32;5.18;;;2.47;;
58637;SDS011;54976;51.510;7.522;2023-02-08T13:00:34;3.72;;;2.50;;
58637;SDS011;54976;51.510;7.522;2023-02-08T13:06:52;6.35;;;3.00;;
58637;SDS011;54976;51.510;7.522;2023-02-08T13:13:38;8.93;;;2.90;;
58637;SDS011;54976;51.510;7.522;2023-02-08T13:16:42;6.72;;;3.30;;
58637;SDS011;54976;51.510;7.522;2023-02-08T13:19:53;6.30;;;2.95;;
58637;SDS011;54976;51.510;7.522;2023-02-08T13:23:12;5.78;;;2.60;;
58637;SDS011;54976;51.510;7.522;2023-02-08T13:26:27;6.28;;;3.13;;
58637;SDS011;54976;51.510;7.522;2023-02-08T13:29:34;8.93;;;2.58;;
58637;SDS011;54976;51.510;7.522;2023-02-08T13:32:37;8.43;;;3.05;;
58637;SDS011;54976;51.510;7.522;2023-02-08T13:35:40;5.35;;;3.15;;
58637;SDS011;54976;51.510;7.522;2023-02-08T13:38:41;4.85;;;2.90;;
58637;SDS011;54976;51.510;7.522;2023-02-08T13:41:49;6.43;;;2.92;;
58637;SDS011;54976;51.510;7.522;2023-02-08T13:44:53;6.93;;;3.53;;
58637;SDS011;54976;51.510;7.522;2023-02-08T13:47:59;6.25;;;3.33;;
58637;SDS011;54976;51.510;7.522;2023-02-08T13:54:37;6.00;;;3.22;;
58637;SDS011;54976;51.510;7.522;2023-02-08T13:57:51;7.93;;;2.90;;
58637;SDS011;54976;51.510;7.522;2023-02-08T14:10:27;8.32;;;3.42;;
58637;SDS011;54976;51.510;7.522;2023-02-08T14:13:39;6.43;;;2.90;;
58637;SDS011;54976;51.510;7.522;2023-02-08T14:41:59;9.20;;;3.88;;
58637;SDS011;54976;51.510;7.522;2023-02-08T14:45:16;10.40;;;4.07;;
58637;SDS011;54976;51.510;7.522;2023-02-08T14:48:43;5.18;;;3.10;;
58637;SDS011;54976;51.510;7.522;2023-02-08T14:51:49;3.92;;;2.92;;
58637;SDS011;54976;51.510;7.522;2023-02-08T14:54:58;9.40;;;2.88;;
58637;SDS011;54976;51.510;7.522;2023-02-08T14:58:03;6.78;;;2.05;;
58637;SDS011;54976;51.510;7.522;2023-02-08T15:01:51;9.05;;;2.70;;
58637;SDS011;54976;51.510;7.522;2023-02-08T15:04:43;3.70;;;2.53;;
58637;SDS011;54976;51.510;7.522;2023-02-08T15:07:54;5.32;;;2.28;;
58637;SDS011;54976;51.510;7.522;2023-02-08T15:10:57;4.85;;;2.28;;
58637;SDS011;54976;51.510;7.522;2023-02-08T15:13:59;7.90;;;3.00;;
58637;SDS011;54976;51.510;7.522;2023-02-08T15:17:02;5.32;;;1.95;;
58637;SDS011;54976;51.510;7.522;2023-02-08T15:20:04;8.15;;;2.10;;
58637;SDS011;54976;51.510;7.522;2023-02-08T15:26:20;3.38;;;2.15;;
58637;SDS011;54976;51.510;7.522;2023-02-08T15:29:23;3.63;;;2.20;;
58637;SDS011;54976;51.510;7.522;2023-02-08T15:32:26;5.13;;;2.13;;
58637;SDS011;54976;51.510;7.522;2023-02-08T15:35:30;4.00;;;1.90;;
58637;SDS011;54976;51.510;7.522;2023-02-08T15:38:34;5.75;;;2.20;;
58637;SDS011;54976;51.510;7.522;2023-02-08T15:41:37;4.57;;;2.20;;
58637;SDS011;54976;51.510;7.522;2023-02-08T15:44:38;3.20;;;2.40;;
58637;SDS011;54976;51.510;7.522;2023-02-08T15:50:44;5.75;;;2.45;;
58637;SDS011;54976;51.510;7.522;2023-02-08T15:53:45;6.40;;;2.30;;
58637;SDS011;54976;51.510;7.522;2023-02-08T15:56:49;7.13;;;2.42;;
58637;SDS011;54976;51.510;7.522;2023-02-08T16:00:18;3.20;;;2.10;;
58637;SDS011;54976;51.510;7.522;2023-02-08T16:03:32;5.30;;;2.65;;
58637;SDS011;54976;51.510;7.522;2023-02-08T16:06:43;5.32;;;2.30;;
58637;SDS011;54976;51.510;7.522;2023-02-08T16:09:52;9.20;;;2.63;;
58637;SDS011;54976;51.510;7.522;2023-02-08T16:12:55;9.20;;;2.67;;
58637;SDS011;54976;51.510;7.522;2023-02-08T16:19:39;8.88;;;2.67;;
58637;SDS011;54976;51.510;7.522;2023-02-08T16:22:53;15.48;;;3.55;;
58637;SDS011;54976;51.510;7.522;2023-02-08T16:25:56;8.32;;;3.72;;
58637;SDS011;54976;51.510;7.522;2023-02-08T16:29:18;7.75;;;3.75;;
58637;SDS011;54976;51.510;7.522;2023-02-08T16:32:27;7.57;;;3.55;;
58637;SDS011;54976;51.510;7.522;2023-02-08T16:35:31;9.77;;;4.55;;
58637;SDS011;54976;51.510;7.522;2023-02-08T16:38:36;5.55;;;3.40;;
58637;SDS011;54976;51.510;7.522;2023-02-08T16:45:00;15.60;;;4.43;;
58637;SDS011;54976;51.510;7.522;2023-02-08T16:48:31;6.07;;;3.63;;
58637;SDS011;54976;51.510;7.522;2023-02-08T16:51:34;7.85;;;2.90;;
58637;SDS011;54976;51.510;7.522;2023-02-08T16:54:38;8.65;;;3.42;;
58637;SDS011;54976;51.510;7.522;2023-02-08T16:57:43;4.38;;;2.75;;
58637;SDS011;54976;51.510;7.522;2023-02-08T17:00:49;3.83;;;2.50;;
58637;SDS011;54976;51.510;7.522;2023-02-08T17:03:49;5.28;;;2.47;;
58637;SDS011;54976;51.510;7.522;2023-02-08T17:06:51;5.40;;;2.80;;
58637;SDS011;54976;51.510;7.522;2023-02-08T17:09:52;8.48;;;2.63;;
58637;SDS011;54976;51.510;7.522;2023-02-08T17:12:53;10.32;;;3.20;;
58637;SDS011;54976;51.510;7.522;2023-02-08T17:15:56;15.30;;;3.55;;
58637;SDS011;54976;51.510;7.522;2023-02-08T17:18:59;5.55;;;3.47;;
58637;SDS011;54976;51.510;7.522;2023-02-08T17:22:00;7.13;;;4.07;;
58637;SDS011;54976;51.510;7.522;2023-02-08T17:25:01;8.13;;;3.75;;
58637;SDS011;54976;51.510;7.522;2023-02-08T17:28:06;27.60;;;7.43;;
58637;SDS011;54976;51.510;7.522;2023-02-08T17:31:11;29.90;;;10.40;;
58637;SDS011;54976;51.510;7.522;2023-02-08T17:34:12;15.20;;;6.22;;
58637;SDS011;54976;51.510;7.522;2023-02-08T17:37:15;12.02;;;4.82;;
58637;SDS011;54976;51.510;7.522;2023-02-08T17:40:16;8.65;;;4.47;;
58637;SDS011;54976;51.510;7.522;2023-02-08T17:43:17;12.25;;;4.40;;
58637;SDS011;54976;51.510;7.522;2023-02-08T17:46:19;15.73;;;4.07;;
58637;SDS011;54976;51.510;7.522;2023-02-08T17:49:21;8.98;;;4.22;;
58637;SDS011;54976;51.510;7.522;2023-02-08T17:52:22;16.83;;;4.43;;
58637;SDS011;54976;51.510;7.522;2023-02-08T17:55:22;9.05;;;4.20;;
58637;SDS011;54976;51.510;7.522;2023-02-08T17:58:23;7.93;;;3.63;;
58637;SDS011;54976;51.510;7.522;2023-02-08T18:01:25;14.48;;;5.45;;
58637;SDS011;54976;51.510;7.522;2023-02-08T18:04:26;16.85;;;5.05;;
58637;SDS011;54976;51.510;7.522;2023-02-08T18:07:26;12.50;;;4.55;;
58637;SDS011;54976;51.510;7.522;2023-02-08T18:10:27;12.18;;;5.30;;
58637;SDS011;54976;51.510;7.522;2023-02-08T18:13:28;13.95;;;7.07;;
58637;SDS011;54976;51.510;7.522;2023-02-08T18:16:28;9.90;;;4.60;;
58637;SDS011;54976;51.510;7.522;2023-02-08T18:19:29;14.38;;;5.35;;
58637;SDS011;54976;51.510;7.522;2023-02-08T18:22:31;14.50;;;5.20;;
58637;SDS011;54976;51.510;7.522;2023-02-08T18:25:31;9.18;;;5.07;;
58637;SDS011;54976;51.510;7.522;2023-02-08T18:28:32;16.90;;;5.53;;
58637;SDS011;54976;51.510;7.522;2023-02-08T18:31:33;10.23;;;5.40;;
58637;SDS011;54976;51.510;7.522;2023-02-08T18:34:35;12.38;;;5.60;;
58637;SDS011;54976;51.510;7.522;2023-02-08T18:37:36;13.07;;;5.82;;
58637;SDS011;54976;51.510;7.522;2023-02-08T18:40:38;17.38;;;6.53;;
58637;SDS011;54976;51.510;7.522;2023-02-08T18:43:42;17.02;;;6.53;;
58637;SDS011;54976;51.510;7.522;2023-02-08T18:46:43;12.40;;;6.93;;
58637;SDS011;54976;51.510;7.522;2023-02-08T18:49:46;19.38;;;6.70;;
58637;SDS011;54976;51.510;7.522;2023-02-08T18:52:52;12.50;;;5.10;;
58637;SDS011;54976;51.510;7.522;2023-02-08T18:55:53;10.35;;;4.70;;
58637;SDS011;54976;51.510;7.522;2023-02-08T19:01:59;15.65;;;4.90;;
58637;SDS011;54976;51.510;7.522;2023-02-08T19:05:01;18.85;;;5.70;;
58637;SDS011;54976;51.510;7.522;2023-02-08T19:08:01;9.32;;;4.78;;
58637;SDS011;54976;51.510;7.522;2023-02-08T19:11:03;7.88;;;4.60;;
58637;SDS011;54976;51.510;7.522;2023-02-08T19:14:05;12.57;;;5.43;;
58637;SDS011;54976;51.510;7.522;2023-02-08T19:17:09;20.47;;;5.63;;
58637;SDS011;54976;51.510;7.522;2023-02-08T19:20:10;10.27;;;4.53;;
58637;SDS011;54976;51.510;7.522;2023-02-08T19:27:08;11.10;;;4.13;;
58637;SDS011;54976;51.510;7.522;2023-02-08T19:30:09;11.23;;;4.80;;
58637;SDS011;54976;51.510;7.522;2023-02-08T19:33:10;10.07;;;4.10;;
58637;SDS011;54976;51.510;7.522;2023-02-08T19:36:12;12.57;;;4.30;;
58637;SDS011;54976;51.510;7.522;2023-02-08T19:39:18;8.43;;;4.00;;
58637;SDS011;54976;51.510;7.522;2023-02-08T19:42:27;11.30;;;4.80;;
58637;SDS011;54976;51.510;7.522;2023-02-08T19:45:28;9.70;;;5.57;;
58637;SDS011;54976;51.510;7.522;2023-02-08T19:48:29;10.07;;;5.07;;
58637;SDS011;54976;51.510;7.522;2023-02-08T19:51:29;12.15;;;5.72;;
58637;SDS011;54976;51.510;7.522;2023-02-08T19:54:32;14.50;;;6.03;;
58637;SDS011;54976;51.510;7.522;2023-02-08T19:57:32;8.27;;;5.28;;
58637;SDS011;54976;51.510;7.522;2023-02-08T20:00:36;8.02;;;4.88;;
58637;SDS011;54976;51.510;7.522;2023-02-08T20:03:37;14.90;;;5.45;;
58637;SDS011;54976;51.510;7.522;2023-02-08T20:06:38;10.52;;;5.45;;
58637;SDS011;54976;51.510;7.522;2023-02-08T20:09:39;14.02;;;5.55;;
58637;SDS011;54976;51.510;7.522;2023-02-08T20:12:40;15.60;;;5.38;;
58637;SDS011;54976;51.510;7.522;2023-02-08T20:15:41;8.35;;;4.70;;
58637;SDS011;54976;51.510;7.522;2023-02-08T20:18:42;18.73;;;5.13;;
58637;SDS011;54976;51.510;7.522;2023-02-08T20:21:43;20.73;;;5.45;;
58637;SDS011;54976;51.510;7.522;2023-02-08T20:24:44;15.80;;;5.40;;
58637;SDS011;54976;51.510;7.522;2023-02-08T20:27:45;13.50;;;5.72;;
58637;SDS011;54976;51.510;7.522;2023-02-08T20:30:45;10.50;;;4.90;;
58637;SDS011;54976;51.510;7.522;2023-02-08T20:33:46;11.15;;;5.13;;
58637;SDS011;54976;51.510;7.522;2023-02-08T20:36:47;11.85;;;6.05;;
58637;SDS011;54976;51.510;7.522;2023-02-08T20:39:48;13.77;;;5.50;;
58637;SDS011;54976;51.510;7.522;2023-02-08T20:42:49;13.35;;;6.07;;
58637;SDS011;54976;51.510;7.522;2023-02-08T20:45:50;13.50;;;5.75;;
58637;SDS011;54976;51.510;7.522;2023-02-08T20:48:51;16.38;;;5.47;;
58637;SDS011;54976;51.510;7.522;2023-02-08T20:51:56;11.18;;;6.18;;
58637;SDS011;54976;51.510;7.522;2023-02-08T20:54:57;13.30;;;5.72;;
58637;SDS011;54976;51.510;7.522;2023-02-08T20:57:57;12.63;;;6.18;;
58637;SDS011;54976;51.510;7.522;2023-02-08T21:00:58;20.08;;;6.32;;
58637;SDS011;54976;51.510;7.522;2023-02-08T21:03:59;21.63;;;6.38;;
58637;SDS011;54976;51.510;7.522;2023-02-08T21:07:01;17.00;;;6.28;;
58637;SDS011;54976;51.510;7.522;2023-02-08T21:10:01;19.15;;;6.60;;
58637;SDS011;54976;51.510;7.522;2023-02-08T21:13:02;12.32;;;5.78;;
58637;SDS011;54976;51.510;7.522;2023-02-08T21:16:04;18.70;;;8.05;;
58637;SDS011;54976;51.510;7.522;2023-02-08T21:19:06;15.73;;;6.80;;
58637;SDS011;54976;51.510;7.522;2023-02-08T21:22:07;15.07;;;6.82;;
58637;SDS011;54976;51.510;7.522;2023-02-08T21:25:08;17.65;;;7.90;;
58637;SDS011;54976;51.510;7.522;2023-02-08T21:28:09;21.08;;;7.72;;
58637;SDS011;54976;51.510;7.522;2023-02-08T21:31:12;18.02;;;7.72;;
58637;SDS011;54976;51.510;7.522;2023-02-08T21:34:16;20.08;;;7.55;;
58637;SDS011;54976;51.510;7.522;2023-02-08T21:37:18;17.17;;;6.35;;
58637;SDS011;54976;51.510;7.522;2023-02-08T21:40:18;17.65;;;7.97;;
58637;SDS011;54976;51.510;7.522;2023-02-08T21:43:20;30.38;;;9.60;;
58637;SDS011;54976;51.510;7.522;2023-02-08T21:46:20;20.98;;;7.35;;
58637;SDS011;54976;51.510;7.522;2023-02-08T21:49:23;18.40;;;7.35;;
58637;SDS011;54976;51.510;7.522;2023-02-08T21:52:43;17.17;;;5.88;;
58637;SDS011;54976;51.510;7.522;2023-02-08T21:56:02;43.80;;;10.02;;
58637;SDS011;54976;51.510;7.522;2023-02-08T21:59:03;20.05;;;6.43;;
58637;SDS011;54976;51.510;7.522;2023-02-08T22:02:04;31.80;;;8.35;;
58637;SDS011;54976;51.510;7.522;2023-02-08T22:05:07;13.32;;;6.95;;
58637;SDS011;54976;51.510;7.522;2023-02-08T22:08:08;22.23;;;7.88;;
58637;SDS011;54976;51.510;7.522;2023-02-08T22:11:12;12.93;;;6.15;;
58637;SDS011;54976;51.510;7.522;2023-02-08T22:14:13;21.75;;;7.55;;
58637;SDS011;54976;51.510;7.522;2023-02-08T22:20:59;15.55;;;7.00;;
58637;SDS011;54976;51.510;7.522;2023-02-08T22:24:02;20.05;;;6.75;;
58637;SDS011;54976;51.510;7.522;2023-02-08T22:27:03;12.05;;;6.53;;
58637;SDS011;54976;51.510;7.522;2023-02-08T22:30:04;23.80;;;7.57;;
58637;SDS011;54976;51.510;7.522;2023-02-08T22:33:06;18.63;;;7.45;;
58637;SDS011;54976;51.510;7.522;2023-02-08T22:36:07;15.23;;;6.95;;
58637;SDS011;54976;51.510;7.522;2023-02-08T22:39:09;19.58;;;7.47;;
58637;SDS011;54976;51.510;7.522;2023-02-08T22:42:10;14.90;;;6.65;;
58637;SDS011;54976;51.510;7.522;2023-02-08T22:45:13;18.40;;;7.30;;
58637;SDS011;54976;51.510;7.522;2023-02-08T22:48:14;16.13;;;6.68;;
58637;SDS011;54976;51.510;7.522;2023-02-08T22:51:16;18.10;;;6.18;;
58637;SDS011;54976;51.510;7.522;2023-02-08T22:54:18;14.02;;;6.35;;
58637;SDS011;54976;51.510;7.522;2023-02-08T22:57:19;14.38;;;6.93;;
58637;SDS011;54976;51.510;7.522;2023-02-08T23:00:19;13.35;;;7.03;;
58637;SDS011;54976;51.510;7.522;2023-02-08T23:03:20;15.68;;;6.63;;
58637;SDS011;54976;51.510;7.522;2023-02-08T23:06:21;20.95;;;7.25;;
58637;SDS011;54976;51.510;7.522;2023-02-08T23:09:22;10.45;;;6.10;;
58637;SDS011;54976;51.510;7.522;2023-02-08T23:12:22;19.00;;;7.70;;
58637;SDS011;54976;51.510;7.522;2023-02-08T23:15:23;16.10;;;7.30;;
58637;SDS011;54976;51.510;7.522;2023-02-08T23:18:24;22.25;;;8.07;;
58637;SDS011;54976;51.510;7.522;2023-02-08T23:21:25;19.48;;;8.05;;
58637;SDS011;54976;51.510;7.522;2023-02-08T23:24:27;15.77;;;7.75;;
58637;SDS011;54976;51.510;7.522;2023-02-08T23:27:27;20.02;;;7.90;;
58637;SDS011;54976;51.510;7.522;2023-02-08T23:30:28;16.58;;;7.63;;
58637;SDS011;54976;51.510;7.522;2023-02-08T23:33:29;17.52;;;7.25;;
58637;SDS011;54976;51.510;7.522;2023-02-08T23:36:30;16.23;;;7.63;;
58637;SDS011;54976;51.510;7.522;2023-02-08T23:39:31;18.08;;;7.60;;
58637;SDS011;54976;51.510;7.522;2023-02-08T23:42:32;19.52;;;7.38;;
58637;SDS011;54976;51.510;7.522;2023-02-08T23:45:33;22.08;;;7.80;;
58637;SDS011;54976;51.510;7.522;2023-02-08T23:48:35;18.45;;;8.07;;
58637;SDS011;54976;51.510;7.522;2023-02-08T23:51:36;18.65;;;8.55;;
58637;SDS011;54976;51.510;7.522;2023-02-08T23:54:49;15.45;;;7.15;;
58637;SDS011;54976;51.510;7.522;2023-02-08T23:57:50;17.52;;;7.60;;
